createdAt,value
2022-09-23T03:57:25.690Z,92.76
2022-09-23T04:00:27.970Z,93.54
2022-09-23T04:03:30.393Z,93.83
2022-09-23T04:06:32.430Z,95.21
2022-09-23T04:09:35.130Z,93.87
2022-09-23T04:12:38.004Z,94.35
2022-09-23T04:15:40.848Z,94.29
2022-09-23T04:18:42.934Z,93.55
2022-09-23T04:21:46.107Z,93.50
2022-09-23T04:24:48.607Z,94.10
2022-09-23T04:27:50.890Z,94.02
2022-09-23T04:30:53.940Z,93.39
2022-09-23T04:33:56.513Z,93.35
2022-09-23T04:36:58.606Z,92.45
2022-09-23T04:40:01.060Z,93.57
2022-09-23T04:43:03.171Z,92.49
2022-09-23T04:46:07.365Z,91.51
2022-09-23T04:49:09.592Z,92.86
2022-09-23T04:52:12.118Z,93.36
2022-09-23T04:55:14.218Z,92.19
2022-09-23T04:58:16.485Z,93.01
2022-09-23T05:01:25.148Z,91.90
2022-09-23T05:04:27.520Z,91.65
2022-09-23T05:07:29.911Z,91.93
2022-09-23T05:10:32.212Z,92.85
2022-09-23T05:13:35.315Z,93.64
2022-09-23T05:16:37.654Z,95.39
2022-09-23T05:19:39.720Z,94.86
2022-09-23T05:22:42.018Z,95.61
2022-09-23T05:25:45.153Z,94.43
2022-09-23T05:28:47.742Z,95.43
2022-09-23T05:31:49.840Z,95.68
2022-09-23T05:34:55.589Z,95.47
2022-09-23T05:37:57.758Z,94.52
2022-09-23T05:41:03.219Z,92.50
2022-09-23T05:44:05.253Z,93.56
2022-09-23T05:47:07.626Z,92.81
2022-09-23T05:50:10.026Z,94.14
2022-09-23T05:53:12.351Z,94.43
2022-09-23T05:56:22.298Z,94.63
2022-09-23T05:59:24.617Z,92.87
2022-09-23T06:02:26.678Z,94.18
2022-09-23T06:05:30.921Z,95.00
2022-09-23T06:08:37.669Z,93.36
2022-09-23T06:11:41.173Z,93.43
2022-09-23T06:14:43.208Z,93.65
2022-09-23T06:17:46.616Z,93.77
2022-09-23T06:20:48.637Z,94.34
2022-09-23T06:23:54.884Z,92.03
2022-09-23T06:26:57.896Z,92.19
2022-09-23T06:30:00.191Z,90.58
2022-09-23T06:33:02.275Z,90.36
2022-09-23T06:36:07.287Z,91.53
2022-09-23T06:39:09.482Z,89.89
2022-09-23T06:42:11.790Z,91.45
2022-09-23T06:45:15.280Z,90.42
2022-09-23T06:48:17.566Z,90.91
2022-09-23T06:51:19.594Z,91.20
2022-09-23T06:54:22.060Z,87.50
2022-09-23T06:57:24.361Z,87.80
2022-09-23T07:00:26.640Z,86.69
2022-09-23T07:03:29.136Z,86.04
2022-09-23T07:06:31.416Z,84.96
2022-09-23T07:09:33.977Z,81.16
2022-09-23T07:12:36.716Z,82.06
2022-09-23T07:15:38.795Z,78.45
2022-09-23T07:18:41.263Z,77.65
2022-09-23T07:21:43.361Z,74.74
2022-09-23T07:24:46.586Z,73.67
2022-09-23T07:27:48.919Z,72.69
2022-09-23T07:30:58.816Z,74.23
2022-09-23T07:34:02.478Z,70.36
2022-09-23T07:37:05.183Z,71.10
2022-09-23T07:40:07.796Z,72.79
2022-09-23T07:43:10.215Z,70.49
2022-09-23T07:46:17.637Z,69.27
2022-09-23T07:49:20.415Z,70.46
2022-09-23T07:52:22.473Z,71.81
2022-09-23T07:55:24.766Z,69.23
2022-09-23T07:58:26.820Z,69.54
2022-09-23T08:01:37.878Z,70.36
2022-09-23T08:04:40.451Z,70.02
2022-09-23T08:07:42.480Z,69.74
2022-09-23T08:10:45.821Z,67.40
2022-09-23T08:13:47.856Z,68.07
2022-09-23T08:16:50.898Z,67.11
2022-09-23T08:19:52.975Z,67.66
2022-09-23T08:22:55.271Z,64.99
2022-09-23T08:26:00.035Z,66.04
2022-09-23T08:29:02.446Z,66.84
2022-09-23T08:32:04.630Z,65.19
2022-09-23T08:35:07.261Z,64.92
2022-09-23T08:38:09.802Z,65.99
2022-09-23T08:41:41.989Z,64.71
2022-09-23T08:44:49.730Z,65.48
2022-09-23T08:48:12.726Z,65.56
2022-09-23T08:51:21.293Z,65.61
2022-09-23T08:54:27.494Z,66.23
2022-09-23T08:57:43.393Z,66.42
2022-09-23T09:00:55.942Z,64.75
2022-09-23T09:04:00.490Z,65.30
2022-09-23T09:10:46.695Z,63.26
2022-09-23T09:14:04.677Z,64.50
2022-09-23T09:17:13.705Z,64.70
2022-09-23T09:20:18.901Z,64.58
2022-09-23T09:23:23.481Z,65.12
2022-09-23T09:26:33.586Z,64.71
2022-09-23T09:29:41.129Z,63.70
2022-09-23T09:33:04.171Z,63.68
2022-09-23T09:36:40.793Z,64.30
2022-09-23T09:39:43.074Z,61.80
2022-09-23T09:42:48.786Z,63.35
2022-09-23T09:46:17.025Z,62.44
2022-09-23T09:49:39.525Z,60.83
2022-09-23T09:52:43.062Z,61.50
2022-09-23T09:55:48.289Z,60.68
2022-09-23T09:58:53.815Z,61.93
2022-09-23T10:02:33.864Z,60.35
2022-09-23T10:05:45.287Z,60.56
2022-09-23T10:09:10.397Z,61.37
2022-09-23T10:12:15.740Z,61.23
2022-09-23T10:15:33.047Z,61.09
2022-09-23T10:18:49.959Z,60.10
2022-09-23T10:21:56.739Z,58.46
2022-09-23T10:25:20.738Z,59.18
2022-09-23T10:28:38.002Z,58.50
2022-09-23T10:31:40.295Z,56.15
2022-09-23T10:34:48.816Z,58.38
2022-09-23T10:37:59.923Z,58.74
2022-09-23T10:41:21.109Z,58.93
2022-09-23T10:44:53.888Z,58.27
2022-09-23T10:48:11.103Z,57.30
2022-09-23T10:51:33.714Z,56.20
2022-09-23T10:54:58.571Z,52.38
2022-09-23T10:58:23.676Z,56.82
2022-09-23T11:01:52.346Z,56.37
2022-09-23T11:04:57.660Z,55.35
2022-09-23T11:08:27.424Z,55.73
2022-09-23T11:11:48.254Z,58.51
2022-09-23T11:15:12.163Z,55.93
2022-09-23T11:18:39.405Z,56.93
2022-09-23T11:21:51.773Z,57.14
2022-09-23T11:25:03.103Z,56.08
2022-09-23T11:28:19.930Z,54.84
2022-09-23T11:31:48.422Z,53.93
2022-09-23T11:35:19.410Z,54.20
2022-09-23T11:38:26.434Z,56.05
2022-09-23T11:41:32.779Z,53.65
2022-09-23T11:44:51.762Z,54.23
2022-09-23T11:47:58.872Z,56.10
2022-09-23T11:51:51.894Z,56.71
2022-09-23T11:55:22.246Z,54.95
2022-09-23T11:58:33.292Z,56.71
2022-09-23T12:02:16.922Z,55.08
2022-09-23T12:05:31.502Z,54.40
2022-09-23T12:08:36.997Z,56.00
2022-09-23T12:12:05.221Z,56.23
2022-09-23T12:15:19.235Z,56.15
2022-09-23T12:18:53.848Z,53.20
2022-09-23T12:22:08.345Z,52.54
2022-09-23T12:25:37.910Z,52.74
2022-09-23T12:28:46.552Z,56.74
2022-09-23T12:31:49.715Z,57.01
2022-09-23T12:34:53.428Z,54.94
2022-09-23T12:37:55.779Z,52.38
2022-09-23T12:40:59.305Z,53.76
2022-09-23T12:44:11.009Z,55.84
2022-09-23T12:47:25.160Z,57.20
2022-09-23T12:51:15.795Z,54.05
2022-09-23T12:54:23.394Z,51.80
2022-09-23T12:57:34.794Z,50.79
2022-09-23T13:00:36.834Z,52.22
2022-09-23T13:04:04.155Z,54.34
2022-09-23T13:07:08.821Z,54.46
2022-09-23T13:10:22.618Z,55.30
2022-09-23T13:13:45.551Z,56.59
2022-09-23T13:16:49.052Z,55.42
2022-09-23T13:20:02.761Z,48.13
2022-09-23T13:23:20.069Z,49.22
2022-09-23T13:26:22.386Z,48.15
2022-09-23T13:29:51.845Z,49.80
2022-09-23T13:33:16.232Z,49.25
2022-09-23T13:36:19.967Z,47.20
2022-09-23T13:39:29.098Z,45.54
2022-09-23T13:42:32.439Z,46.46
2022-09-23T13:45:39.970Z,47.44
2022-09-23T13:48:46.044Z,48.35
2022-09-23T13:51:48.636Z,48.01
2022-09-23T13:54:52.484Z,48.74
2022-09-23T13:58:03.342Z,49.87
2022-09-23T14:01:20.369Z,48.19
2022-09-23T14:04:24.569Z,46.95
2022-09-23T14:07:26.720Z,47.88
2022-09-23T14:10:31.081Z,51.31
2022-09-23T14:13:41.408Z,52.73
2022-09-23T14:16:44.194Z,54.01
2022-09-23T14:19:47.154Z,55.27
2022-09-23T14:23:13.961Z,57.28
2022-09-23T14:26:16.030Z,58.83
2022-09-23T14:29:23.239Z,56.50
2022-09-23T14:32:28.146Z,57.62
2022-09-23T14:35:42.516Z,58.40
2022-09-23T14:38:50.961Z,60.51
2022-09-23T14:41:55.337Z,59.83
2022-09-23T14:44:57.897Z,60.19
2022-09-23T14:48:06.033Z,58.02
2022-09-23T14:51:13.258Z,54.63
2022-09-23T14:54:44.934Z,55.17
2022-09-23T14:57:47.972Z,55.20
2022-09-23T15:00:57.853Z,54.47
2022-09-23T15:04:15.623Z,54.58
2022-09-23T15:07:20.631Z,49.53
2022-09-23T15:10:30.106Z,50.83
